createdAt,value
2023-10-09T00:01:20.034Z,6.44
2023-10-09T00:03:57.429Z,6.34
2023-10-09T00:06:42.183Z,6.23
2023-10-09T00:26:43.833Z,6.62
2023-10-09T00:34:03.070Z,6.39
2023-10-09T00:36:50.770Z,6.46
2023-10-09T00:39:41.635Z,6.48
2023-10-09T00:42:29.187Z,6.52
2023-10-09T00:45:18.020Z,6.56
2023-10-09T00:48:57.088Z,6.55
2023-10-09T00:51:37.240Z,6.52
2023-10-09T00:54:41.764Z,6.49
2023-10-09T00:57:25.897Z,6.48
2023-10-09T01:00:32.123Z,6.49
2023-10-09T01:03:23.301Z,6.54
2023-10-09T01:06:44.387Z,6.58
2023-10-09T01:10:36.638Z,6.62
2023-10-09T01:13:10.892Z,6.64
2023-10-09T01:15:53.749Z,6.63
2023-10-09T01:23:00.091Z,6.61
2023-10-09T01:25:54.332Z,6.61
2023-10-09T01:28:26.335Z,6.64
2023-10-09T01:49:35.575Z,6.65
2023-10-09T01:52:24.646Z,6.72
2023-10-09T01:55:47.157Z,6.74
2023-10-09T01:59:10.859Z,6.71
2023-10-09T02:02:02.677Z,6.67
2023-10-09T02:14:24.807Z,6.55
2023-10-09T02:17:04.044Z,6.53
2023-10-09T02:19:56.924Z,6.49
2023-10-09T02:23:00.696Z,6.49
2023-10-09T02:25:43.378Z,6.52
2023-10-09T02:35:48.711Z,6.62
2023-10-09T02:38:24.255Z,6.57
2023-10-09T02:41:07.647Z,6.51
2023-10-09T02:44:12.352Z,6.46
2023-10-09T02:47:21.012Z,6.44
2023-10-09T02:50:26.213Z,6.44
2023-10-09T02:53:33.149Z,6.41
2023-10-09T02:56:17.425Z,6.38
2023-10-09T02:58:49.581Z,6.33
2023-10-09T03:01:24.765Z,6.02
2023-10-09T03:11:44.881Z,6.19
2023-10-09T03:14:30.830Z,6.20
2023-10-09T03:17:17.873Z,6.20
2023-10-09T03:20:03.148Z,6.20
2023-10-09T03:36:30.268Z,5.82
2023-10-09T03:40:02.927Z,5.81
2023-10-09T03:44:00.703Z,5.81
2023-10-09T03:47:04.118Z,5.84
2023-10-09T03:49:46.102Z,5.86
2023-10-09T03:52:29.289Z,5.88
2023-10-09T03:56:15.602Z,5.89
2023-10-09T03:58:56.068Z,5.90
2023-10-09T04:01:55.874Z,6.22
2023-10-09T04:08:34.925Z,6.36
2023-10-09T04:11:23.805Z,6.37
2023-10-09T04:14:12.757Z,6.37
2023-10-09T04:17:23.709Z,6.37
2023-10-09T04:20:37.408Z,6.36
2023-10-09T04:24:11.209Z,6.39
2023-10-09T04:27:01.356Z,6.37
2023-10-09T04:29:47.918Z,6.35
2023-10-09T04:32:25.739Z,6.35
2023-10-09T04:35:26.036Z,6.34
2023-10-09T04:38:06.747Z,6.34
2023-10-09T04:41:07.419Z,6.35
2023-10-09T04:48:40.232Z,6.34
2023-10-09T04:52:00.700Z,6.35
2023-10-09T04:58:44.266Z,6.40
2023-10-09T05:01:15.943Z,6.37
2023-10-09T05:03:45.022Z,6.38
2023-10-09T05:06:22.415Z,6.41
2023-10-09T05:12:16.185Z,6.44
2023-10-09T05:15:08.925Z,6.46
2023-10-09T05:19:00.151Z,6.46
2023-10-09T05:21:45.182Z,6.52
2023-10-09T05:24:14.087Z,6.54
2023-10-09T05:35:00.574Z,6.54
2023-10-09T05:37:43.732Z,6.56
2023-10-09T05:40:18.063Z,6.62
2023-10-09T05:42:47.484Z,6.65
2023-10-09T05:45:18.349Z,6.70
2023-10-09T05:47:55.253Z,6.76
2023-10-09T05:50:24.091Z,6.80
2023-10-09T05:53:03.021Z,6.82
2023-10-09T05:55:56.055Z,6.82
2023-10-09T05:58:52.614Z,6.82
2023-10-09T06:01:39.066Z,6.79
2023-10-09T06:04:18.870Z,6.79
2023-10-09T06:06:47.675Z,6.80
2023-10-09T06:09:17.457Z,6.85
2023-10-09T06:11:57.031Z,6.92
2023-10-09T06:14:36.647Z,6.95
2023-10-09T06:20:38.433Z,6.76
2023-10-09T06:23:24.591Z,6.90
2023-10-09T06:26:07.573Z,6.92
2023-10-09T06:28:50.492Z,6.98
2023-10-09T06:35:23.894Z,7.09
2023-10-09T06:38:01.896Z,7.19
2023-10-09T06:40:54.221Z,7.29
2023-10-09T06:43:26.090Z,7.36
2023-10-09T06:46:20.434Z,7.44
2023-10-09T06:48:56.928Z,7.55
2023-10-09T06:51:28.237Z,7.62
2023-10-09T06:54:26.520Z,7.78
2023-10-09T06:57:13.919Z,7.78
2023-10-09T07:00:12.444Z,7.78
2023-10-09T07:02:48.778Z,7.77
2023-10-09T07:05:19.285Z,7.80
2023-10-09T07:07:55.769Z,7.82
2023-10-09T07:10:34.402Z,7.83
2023-10-09T07:13:12.667Z,7.86
2023-10-09T07:16:07.212Z,7.89
2023-10-09T07:19:11.105Z,7.91
2023-10-09T07:22:02.981Z,7.92
2023-10-09T07:24:44.400Z,7.95
2023-10-09T07:27:44.901Z,7.99
2023-10-09T07:30:30.878Z,8.05
2023-10-09T07:33:13.103Z,8.06
2023-10-09T07:35:58.270Z,8.07
2023-10-09T07:38:36.258Z,8.09
2023-10-09T07:41:42.076Z,8.14
2023-10-09T07:44:32.869Z,8.20
2023-10-09T07:47:44.282Z,8.24
2023-10-09T07:50:21.812Z,8.30
2023-10-09T07:52:52.035Z,8.34
2023-10-09T07:55:30.456Z,8.38
2023-10-09T07:58:13.199Z,8.45
2023-10-09T08:01:01.670Z,8.36
2023-10-09T08:03:38.685Z,8.43
2023-10-09T08:06:28.553Z,8.34
2023-10-09T08:09:20.236Z,8.45
2023-10-09T08:12:14.577Z,8.45
2023-10-09T08:14:49.039Z,8.46
2023-10-09T08:17:22.046Z,8.52
2023-10-09T08:19:54.910Z,8.54
2023-10-09T08:22:32.009Z,8.56
2023-10-09T08:25:07.989Z,8.61
2023-10-09T08:27:49.867Z,8.66
2023-10-09T08:30:22.550Z,8.76
2023-10-09T08:36:23.679Z,8.79
2023-10-09T08:38:58.909Z,8.76
2023-10-09T08:41:34.483Z,8.89
2023-10-09T08:44:18.566Z,8.92
2023-10-09T08:46:52.246Z,8.93
2023-10-09T08:49:26.130Z,8.96
2023-10-09T08:53:14.644Z,9.03
2023-10-09T08:55:47.247Z,9.09
2023-10-09T08:58:46.655Z,9.10
2023-10-09T09:01:23.387Z,9.26
2023-10-09T09:03:57.508Z,9.37
2023-10-09T09:06:57.403Z,9.41
2023-10-09T09:09:34.838Z,9.34
2023-10-09T09:12:15.583Z,9.32
2023-10-09T09:14:45.278Z,9.41
2023-10-09T09:17:14.346Z,9.51
2023-10-09T09:19:43.263Z,9.61
2023-10-09T09:22:13.951Z,9.68
2023-10-09T09:24:47.869Z,9.75
2023-10-09T09:27:21.431Z,9.82
2023-10-09T09:29:55.112Z,9.85
2023-10-09T09:32:36.361Z,9.87
2023-10-09T09:35:08.067Z,9.94
2023-10-09T09:37:44.612Z,10.02
2023-10-09T09:40:31.296Z,10.10
2023-10-09T09:43:11.786Z,10.16
2023-10-09T09:45:50.254Z,10.23
2023-10-09T09:48:19.809Z,10.30
2023-10-09T09:50:55.560Z,10.40
2023-10-09T09:53:24.609Z,10.53
2023-10-09T09:55:58.784Z,10.59
2023-10-09T09:58:42.931Z,10.55
2023-10-09T10:01:35.976Z,10.50
2023-10-09T10:04:12.425Z,10.50
2023-10-09T10:06:43.039Z,10.51
2023-10-09T10:09:12.967Z,10.47
2023-10-09T10:11:46.861Z,10.46
2023-10-09T10:14:32.156Z,10.42
2023-10-09T10:17:06.351Z,10.43
2023-10-09T10:20:19.328Z,10.49
2023-10-09T10:22:51.628Z,10.51
2023-10-09T10:25:41.966Z,10.46
2023-10-09T10:28:43.176Z,10.41
2023-10-09T10:31:14.536Z,10.43
2023-10-09T10:34:08.018Z,10.48
2023-10-09T10:36:43.644Z,10.49
2023-10-09T10:39:16.784Z,10.47
2023-10-09T10:41:58.347Z,10.45
2023-10-09T10:44:36.509Z,10.47
2023-10-09T10:47:29.796Z,10.59
2023-10-09T10:50:22.590Z,10.80
2023-10-09T10:53:02.200Z,10.97
2023-10-09T10:55:38.475Z,11.01
2023-10-09T10:58:36.390Z,11.03
2023-10-09T11:02:15.787Z,11.10
2023-10-09T11:04:59.429Z,11.29
2023-10-09T11:08:07.567Z,11.44
2023-10-09T11:19:22.926Z,11.84
2023-10-09T11:27:01.682Z,11.95
2023-10-09T11:29:57.151Z,11.88
2023-10-09T11:51:50.002Z,11.80
2023-10-09T11:59:38.536Z,11.83
2023-10-09T12:03:19.526Z,11.84
2023-10-09T12:06:24.377Z,11.87
2023-10-09T12:09:24.631Z,11.92
2023-10-09T12:13:06.760Z,11.91
2023-10-09T12:23:10.307Z,11.71
2023-10-09T12:26:57.492Z,11.67
2023-10-09T12:57:30.664Z,11.36
2023-10-09T13:09:46.719Z,11.38
2023-10-09T13:12:44.444Z,11.40
2023-10-09T13:34:41.889Z,11.31
2023-10-09T13:42:06.963Z,11.09
2023-10-09T13:45:05.289Z,11.05
2023-10-09T13:56:22.036Z,11.04
2023-10-09T14:03:28.656Z,11.02
2023-10-09T14:06:20.399Z,10.95
2023-10-09T14:08:54.720Z,10.93
2023-10-09T14:11:48.029Z,10.86
2023-10-09T14:14:50.942Z,10.81
2023-10-09T14:17:34.352Z,10.78
2023-10-09T14:20:33.149Z,10.74
2023-10-09T14:23:20.834Z,10.68
2023-10-09T14:27:25.612Z,10.63
2023-10-09T15:14:01.709Z,10.17
2023-10-09T15:17:27.700Z,10.15
2023-10-09T15:20:51.042Z,10.13
2023-10-09T15:23:37.388Z,10.08
2023-10-09T15:26:20.136Z,10.09
2023-10-09T15:29:18.382Z,10.06
2023-10-09T15:32:49.929Z,10.03
2023-10-09T15:35:53.749Z,10.01
2023-10-09T15:41:59.225Z,9.88
2023-10-09T15:44:56.458Z,9.92
2023-10-09T15:47:33.493Z,9.89
2023-10-09T15:50:02.801Z,9.87
2023-10-09T15:52:32.451Z,9.86
2023-10-09T15:55:04.775Z,9.86
2023-10-09T15:57:34.850Z,9.80
2023-10-09T16:00:30.796Z,9.77
2023-10-09T16:02:58.129Z,9.74
2023-10-09T16:05:31.104Z,9.74
2023-10-09T16:08:09.040Z,9.71
2023-10-09T16:10:37.192Z,9.68
2023-10-09T16:13:13.614Z,9.65
2023-10-09T16:15:45.407Z,9.62
2023-10-09T16:18:40.081Z,9.60
2023-10-09T16:21:13.454Z,9.58
2023-10-09T16:24:18.002Z,9.56
2023-10-09T16:30:57.871Z,9.51
2023-10-09T16:42:55.763Z,9.42
2023-10-09T16:46:15.969Z,9.37
2023-10-09T16:49:33.766Z,9.33
2023-10-09T16:52:16.560Z,9.28
2023-10-09T16:55:25.073Z,9.22
2023-10-09T16:58:31.340Z,9.21
2023-10-09T17:02:19.895Z,9.17
2023-10-09T17:05:30.930Z,9.13
2023-10-09T17:09:44.316Z,9.10
2023-10-09T17:12:27.996Z,9.03
2023-10-09T17:15:41.861Z,8.97
2023-10-09T17:18:15.112Z,8.92
2023-10-09T17:21:01.113Z,8.89
2023-10-09T17:24:10.339Z,8.85
2023-10-09T17:26:49.336Z,8.77
2023-10-09T17:29:38.373Z,8.76
2023-10-09T17:33:11.799Z,8.72
2023-10-09T17:37:31.282Z,8.65
2023-10-09T17:40:53.291Z,8.62
2023-10-09T17:43:51.176Z,8.57
2023-10-09T17:47:04.274Z,8.50
2023-10-09T17:50:24.037Z,8.44
2023-10-09T17:53:52.215Z,8.39
2023-10-09T17:57:33.657Z,8.32
2023-10-09T18:00:39.416Z,8.27
2023-10-09T18:03:18.511Z,8.23
2023-10-09T18:11:34.812Z,8.18
2023-10-09T18:26:09.970Z,8.22
2023-10-09T18:34:05.974Z,8.14
2023-10-09T18:39:32.296Z,7.96
2023-10-09T18:42:23.612Z,8.11
2023-10-09T18:46:15.037Z,8.07
2023-10-09T18:49:17.012Z,8.00
2023-10-09T18:56:49.371Z,7.90
2023-10-09T19:00:39.543Z,7.87
2023-10-09T19:03:54.914Z,7.82
2023-10-09T19:16:42.936Z,7.57
2023-10-09T19:19:50.701Z,7.50
